Weather at Breckenridge Airport

Public forecast

Using degrees Fahrenheit for public forecast. Weather courtesy of forecast.io.

Closest aviation weather report (METAR) to Breckenridge Airport

Closest report is Meadows Field, 10.7 nm (19.8 km) WNW. Retrieved 2021/03/05 04:54 UTC (54 minutes ago):

KBFL 050454Z 08003KT 10SM CLR 14/M01 A3024 RMK AO2 SLP239 T01441011

Closest aviation forecast (TAF) to Breckenridge Airport

Closest forecast is Meadows Field, 10.7 nm (19.8 km) WNW. Retrieved 2021-03-05 00:22 UTC (5 hours ago):

TAF KBFL 042320Z 0500/0524 VRB04KT P6SM SKC